Time;durP1;ratioP1;P1;durP2;ratioP2;P2;SDS_P1;SDS_P2;PMS_P1;PMS_P2;Temp;Humidity;BMP_temperature;BMP_pressure;BME280_temperature;BME280_humidity;BME280_pressure;Samples;Min_cycle;Max_cycle;Signal;HPM_P1;HPM_P2
2023/12/04 00:02:14;;;;;;;35.40;21.27;;;0.10;89.00;;;;;;5066710;28;20110;-49
2023/12/04 00:04:41;;;;;;;30.10;20.08;;;0.10;89.10;;;;;;5095259;28;20059;-47
2023/12/04 00:07:08;;;;;;;28.23;18.42;;;0.10;89.10;;;;;;5095798;28;20028;-47
2023/12/04 00:09:35;;;;;;;29.40;20.00;;;0.00;89.00;;;;;;5096091;28;20112;-49
2023/12/04 00:12:06;;;;;;;29.63;18.88;;;0.00;89.20;;;;;;5096158;28;20350;-51
2023/12/04 00:14:37;;;;;;;30.35;18.38;;;0.00;89.10;;;;;;5095034;28;20046;-45
2023/12/04 00:17:04;;;;;;;27.73;19.10;;;0.00;89.10;;;;;;5076680;28;20461;-47
2023/12/04 00:19:31;;;;;;;29.10;17.55;;;0.00;89.10;;;;;;5076622;28;20033;-49
2023/12/04 00:21:58;;;;;;;30.63;18.88;;;0.00;88.90;;;;;;5095943;28;20046;-51
2023/12/04 00:24:26;;;;;;;29.73;17.90;;;0.00;89.00;;;;;;5099260;28;20035;-52
2023/12/04 00:26:53;;;;;;;29.98;19.20;;;0.00;89.00;;;;;;5075562;28;20326;-46
2023/12/04 00:29:20;;;;;;;31.65;18.50;;;0.00;88.80;;;;;;5075452;28;20545;-48
2023/12/04 00:31:46;;;;;;;29.10;18.67;;;0.00;89.20;;;;;;5078518;28;20428;-51
2023/12/04 00:34:12;;;;;;;26.65;16.25;;;0.00;88.90;;;;;;5077676;28;20394;-48
2023/12/04 00:36:43;;;;;;;23.80;17.95;;;0.00;88.90;;;;;;5093256;28;20055;-49
2023/12/04 00:39:15;;;;;;;28.30;17.90;;;0.00;88.80;;;;;;5085068;28;20114;-51
2023/12/04 00:41:42;;;;;;;26.13;18.30;;;0.00;88.50;;;;;;5095256;28;20024;-50
2023/12/04 00:44:09;;;;;;;27.30;16.27;;;0.00;88.40;;;;;;5094515;28;20032;-52
2023/12/04 00:46:36;;;;;;;27.35;17.23;;;-3276.70;88.50;;;;;;5095151;28;20031;-46
2023/12/04 00:49:03;;;;;;;26.17;16.23;;;0.00;88.50;;;;;;5077407;28;20399;-46
2023/12/04 00:51:36;;;;;;;25.27;16.42;;;0.00;88.60;;;;;;5075530;28;20035;-47
2023/12/04 00:54:02;;;;;;;24.45;15.43;;;0.00;88.60;;;;;;5081540;28;20020;-48
2023/12/04 00:56:28;;;;;;;24.25;15.82;;;0.00;88.40;;;;;;5057120;28;20464;-46
2023/12/04 00:58:55;;;;;;;21.95;15.50;;;0.00;88.30;;;;;;5095884;28;20056;-46
2023/12/04 01:01:24;;;;;;;25.38;16.63;;;0.00;88.60;;;;;;5115399;28;20466;-48
2023/12/04 01:03:56;;;;;;;24.73;15.32;;;0.00;88.30;;;;;;5114296;28;20039;-48
2023/12/04 01:06:23;;;;;;;23.45;15.55;;;0.00;88.40;;;;;;5105564;27;20027;-45
2023/12/04 01:08:52;;;;;;;25.20;16.00;;;0.00;88.30;;;;;;5097005;28;20035;-50
2023/12/04 01:11:20;;;;;;;20.90;14.75;;;0.00;88.20;;;;;;5113952;28;20032;-48
2023/12/04 01:13:50;;;;;;;26.50;16.38;;;0.00;88.20;;;;;;5080609;28;20039;-46
2023/12/04 01:16:17;;;;;;;24.95;15.10;;;0.00;88.10;;;;;;5133651;27;20031;-48
2023/12/04 01:18:44;;;;;;;24.88;14.80;;;0.00;88.00;;;;;;5077270;28;20044;-47
2023/12/04 01:21:10;;;;;;;24.95;16.88;;;0.00;88.20;;;;;;5094563;28;20012;-49
2023/12/04 01:23:36;;;;;;;28.30;16.98;;;0.00;88.40;;;;;;5111315;28;20134;-50
2023/12/04 01:26:06;;;;;;;22.02;15.52;;;0.00;88.40;;;;;;5114446;28;20158;-48
2023/12/04 01:28:35;;;;;;;24.90;15.02;;;0.00;88.30;;;;;;5115240;28;20081;-47
2023/12/04 01:31:01;;;;;;;;;;;0.00;88.20;;;;;;5115268;28;20361;-46
2023/12/04 01:33:32;;;;;;;27.60;17.00;;;0.00;88.00;;;;;;5114503;28;19904;-48
2023/12/04 01:35:59;;;;;;;28.75;16.67;;;0.00;88.00;;;;;;5077717;28;20050;-49
2023/12/04 01:38:25;;;;;;;25.35;15.98;;;0.00;87.80;;;;;;5114656;28;20433;-51
2023/12/04 01:40:52;;;;;;;25.85;15.77;;;0.00;87.80;;;;;;5114363;28;20032;-47
2023/12/04 01:43:18;;;;;;;23.92;16.50;;;0.00;87.70;;;;;;5111760;28;20093;-47
2023/12/04 01:45:45;;;;;;;24.63;15.75;;;0.00;87.60;;;;;;5097512;28;20031;-49
2023/12/04 01:48:17;;;;;;;27.35;16.92;;;0.10;87.40;;;;;;5084072;28;20111;-47
2023/12/04 01:50:45;;;;;;;22.08;15.48;;;0.00;87.30;;;;;;5093100;28;20089;-46
2023/12/04 01:53:13;;;;;;;26.55;18.25;;;0.00;87.30;;;;;;5106234;28;20027;-46
2023/12/04 01:55:41;;;;;;;25.65;15.52;;;0.00;87.30;;;;;;5113244;28;20019;-46
2023/12/04 01:58:09;;;;;;;26.70;16.88;;;0.00;87.50;;;;;;5109605;28;20067;-46
2023/12/04 02:00:36;;;;;;;26.52;16.83;;;0.00;87.60;;;;;;5073697;28;20380;-46
2023/12/04 02:03:04;;;;;;;28.42;16.33;;;0.10;87.70;;;;;;5075596;28;20087;-52
2023/12/04 02:05:31;;;;;;;23.95;16.33;;;0.10;87.80;;;;;;5057782;28;20052;-46
2023/12/04 02:08:00;;;;;;;29.10;19.08;;;0.00;87.90;;;;;;5071247;28;20101;-47
2023/12/04 02:10:27;;;;;;;27.48;16.08;;;0.00;88.30;;;;;;5080864;28;20058;-47
2023/12/04 02:12:54;;;;;;;28.23;16.52;;;0.00;88.50;;;;;;5079037;28;20032;-47
2023/12/04 02:15:27;;;;;;;30.25;18.35;;;0.00;88.50;;;;;;5073736;28;20024;-46
2023/12/04 02:17:57;;;;;;;27.90;16.98;;;0.00;88.80;;;;;;5077956;28;20365;-47
2023/12/04 02:20:35;;;;;;;29.73;19.20;;;0.00;88.90;;;;;;5079630;28;20054;-46
2023/12/04 02:23:03;;;;;;;31.23;18.90;;;0.00;89.20;;;;;;5065919;28;20016;-50
2023/12/04 02:25:32;;;;;;;29.23;18.35;;;0.00;89.10;;;;;;5077576;28;20477;-46
2023/12/04 02:28:04;;;;;;;27.13;17.63;;;0.00;89.40;;;;;;5078362;28;20024;-47
2023/12/04 02:30:37;;;;;;;27.27;17.50;;;0.00;89.30;;;;;;5077713;28;20586;-49
2023/12/04 02:33:15;;;;;;;31.05;18.90;;;0.00;89.60;;;;;;5082335;28;20074;-47
2023/12/04 02:35:45;;;;;;;;;;;0.00;89.60;;;;;;5083001;28;20024;-47
2023/12/04 02:38:14;;;;;;;27.50;17.63;;;0.00;89.50;;;;;;5074368;28;19948;-50
2023/12/04 02:40:45;;;;;;;35.03;20.27;;;0.00;89.70;;;;;;5077348;28;20032;-48
2023/12/04 02:43:13;;;;;;;30.50;19.73;;;0.00;89.60;;;;;;5076108;28;20127;-48
2023/12/04 02:45:40;;;;;;;29.45;18.52;;;0.00;89.90;;;;;;5075729;28;20021;-49
2023/12/04 02:48:07;;;;;;;30.27;20.73;;;0.00;89.80;;;;;;5072898;28;20035;-51
2023/12/04 02:50:35;;;;;;;38.28;21.08;;;0.00;90.00;;;;;;5065004;28;20032;-50
2023/12/04 02:53:03;;;;;;;30.67;19.38;;;0.00;90.00;;;;;;5085944;28;20024;-52
2023/12/04 02:55:31;;;;;;;29.95;18.50;;;0.00;90.00;;;;;;5088360;28;20062;-51
2023/12/04 02:58:01;;;;;;;31.08;17.85;;;0.00;90.20;;;;;;5093122;28;20031;-53
2023/12/04 03:00:30;;;;;;;30.52;18.67;;;0.00;90.30;;;;;;5098142;28;20020;-53
2023/12/04 03:02:57;;;;;;;28.65;19.27;;;0.00;90.50;;;;;;5115474;28;20019;-53
2023/12/04 03:05:23;;;;;;;30.58;19.52;;;0.00;90.70;;;;;;5100485;28;20032;-49
2023/12/04 03:07:52;;;;;;;31.63;18.85;;;0.00;90.70;;;;;;5108896;28;20020;-50
2023/12/04 03:10:20;;;;;;;31.48;20.20;;;0.00;90.70;;;;;;5099952;28;20096;-52
2023/12/04 03:12:45;;;;;;;34.35;21.98;;;0.00;90.80;;;;;;5113103;28;20663;-49
2023/12/04 03:15:12;;;;;;;33.70;20.30;;;0.00;90.90;;;;;;5112163;28;20122;-49
2023/12/04 03:17:39;;;;;;;29.55;18.77;;;0.00;91.00;;;;;;5105661;28;20333;-51
2023/12/04 03:20:08;;;;;;;32.88;21.02;;;0.00;90.90;;;;;;5113469;28;20024;-51
2023/12/04 03:22:37;;;;;;;35.97;20.90;;;0.00;91.00;;;;;;5109853;28;20047;-50
2023/12/04 03:25:06;;;;;;;29.67;20.30;;;0.00;91.20;;;;;;5075456;28;20387;-51
2023/12/04 03:27:33;;;;;;;;;;;0.00;91.00;;;;;;5095422;28;20254;-50
2023/12/04 03:30:00;;;;;;;29.80;17.13;;;0.00;91.20;;;;;;5113450;28;19926;-52
2023/12/04 03:32:27;;;;;;;34.95;19.40;;;0.00;91.10;;;;;;5112438;28;20028;-50
2023/12/04 03:34:56;;;;;;;32.33;20.17;;;0.00;91.20;;;;;;5095195;28;20156;-50
2023/12/04 03:37:24;;;;;;;32.47;20.88;;;0.00;91.30;;;;;;5112180;28;20107;-52
2023/12/04 03:39:51;;;;;;;30.17;19.13;;;0.00;91.20;;;;;;5113370;28;20066;-49
2023/12/04 03:42:18;;;;;;;35.30;20.30;;;0.00;91.20;;;;;;5113604;28;20023;-52
2023/12/04 03:44:43;;;;;;;30.02;19.42;;;0.00;91.10;;;;;;5131612;28;20035;-48
2023/12/04 03:47:12;;;;;;;29.02;18.05;;;0.00;91.00;;;;;;5094044;28;20027;-52
2023/12/04 03:49:38;;;;;;;33.22;18.95;;;0.00;91.20;;;;;;5092972;28;20456;-52
2023/12/04 03:52:06;;;;;;;33.40;19.10;;;0.00;91.30;;;;;;5107001;28;20449;-52
2023/12/04 03:54:33;;;;;;;33.88;21.77;;;0.00;91.30;;;;;;5113108;28;20103;-50
2023/12/04 03:57:02;;;;;;;28.48;18.60;;;0.00;91.30;;;;;;5112100;28;20023;-50
2023/12/04 03:59:29;;;;;;;28.85;18.42;;;0.00;91.60;;;;;;5112421;28;20051;-51
2023/12/04 04:01:57;;;;;;;29.63;18.88;;;0.00;91.50;;;;;;5094200;28;20077;-52
2023/12/04 04:04:25;;;;;;;30.73;18.60;;;0.00;91.60;;;;;;5112850;28;20026;-53
2023/12/04 04:06:51;;;;;;;32.40;19.98;;;0.00;91.80;;;;;;5104751;28;20103;-50
2023/12/04 04:09:20;;;;;;;29.35;18.13;;;0.00;91.70;;;;;;5096058;28;20032;-47
2023/12/04 04:11:49;;;;;;;31.77;19.08;;;0.00;91.70;;;;;;5095916;28;20152;-52
2023/12/04 04:14:17;;;;;;;34.08;22.88;;;0.00;91.80;;;;;;5104434;28;20077;-51
2023/12/04 04:16:45;;;;;;;31.65;19.27;;;0.00;91.90;;;;;;5112892;28;20028;-48
2023/12/04 04:19:12;;;;;;;29.33;18.23;;;0.00;91.90;;;;;;5098658;28;20039;-50
2023/12/04 04:21:42;;;;;;;31.20;20.27;;;0.00;91.80;;;;;;5095584;28;20035;-52
2023/12/04 04:24:09;;;;;;;29.23;18.00;;;0.00;92.00;;;;;;5088034;28;20055;-49
2023/12/04 04:26:36;;;;;;;31.63;19.85;;;0.00;92.10;;;;;;5099640;28;20103;-54
2023/12/04 04:29:03;;;;;;;37.53;22.08;;;0.00;92.10;;;;;;5114097;27;20045;-49
2023/12/04 04:31:31;;;;;;;32.72;20.90;;;0.00;92.10;;;;;;5108713;28;20050;-47
2023/12/04 04:33:57;;;;;;;32.45;20.58;;;0.00;92.10;;;;;;5116348;28;20318;-49
2023/12/04 04:36:26;;;;;;;32.95;20.08;;;0.00;92.20;;;;;;5115953;28;20434;-47
2023/12/04 04:38:54;;;;;;;31.58;21.67;;;0.10;92.20;;;;;;5097712;28;20049;-49
2023/12/04 04:41:24;;;;;;;32.88;21.38;;;0.00;92.20;;;;;;5115972;28;20016;-47
2023/12/04 04:43:53;;;;;;;32.90;18.85;;;0.00;92.20;;;;;;5115898;28;20041;-48
2023/12/04 04:46:20;;;;;;;33.47;19.10;;;0.00;92.20;;;;;;5096681;28;20111;-49
2023/12/04 04:48:47;;;;;;;35.35;19.42;;;0.00;92.30;;;;;;5115338;28;20047;-47
2023/12/04 04:51:15;;;;;;;30.75;19.23;;;0.10;92.30;;;;;;5115063;28;20099;-47
2023/12/04 04:53:41;;;;;;;37.00;21.23;;;0.00;92.40;;;;;;5115770;28;20095;-48
2023/12/04 04:56:08;;;;;;;31.48;19.52;;;0.00;92.40;;;;;;5115036;28;20516;-47
2023/12/04 04:58:34;;;;;;;32.17;19.42;;;0.00;92.60;;;;;;5112864;28;20062;-50
2023/12/04 05:01:04;;;;;;;33.40;21.15;;;0.10;92.50;;;;;;5115226;28;20020;-47
2023/12/04 05:03:32;;;;;;;33.35;19.40;;;0.00;92.50;;;;;;5096340;28;20368;-48
2023/12/04 05:06:03;;;;;;;30.77;19.75;;;0.00;92.60;;;;;;5115585;28;20046;-48
2023/12/04 05:08:30;;;;;;;31.48;19.60;;;0.00;92.70;;;;;;5114538;28;20055;-49
2023/12/04 05:10:57;;;;;;;31.95;18.95;;;0.00;92.70;;;;;;5108466;28;20059;-52
2023/12/04 05:13:23;;;;;;;37.10;20.73;;;0.00;92.80;;;;;;5103048;28;20023;-51
2023/12/04 05:15:50;;;;;;;30.80;19.95;;;0.10;93.00;;;;;;5096737;28;20115;-49
2023/12/04 05:18:16;;;;;;;32.65;19.70;;;0.10;92.80;;;;;;5101107;28;20343;-50
2023/12/04 05:20:44;;;;;;;30.95;18.38;;;0.10;92.90;;;;;;5094816;28;20031;-50
2023/12/04 05:23:11;;;;;;;31.63;19.70;;;0.00;92.90;;;;;;5099299;27;20406;-48
2023/12/04 05:25:38;;;;;;;32.13;20.42;;;0.00;92.90;;;;;;5088050;28;20024;-48
2023/12/04 05:28:09;;;;;;;32.88;19.00;;;0.10;92.90;;;;;;5097263;28;20548;-52
2023/12/04 05:30:36;;;;;;;31.73;19.30;;;0.10;93.00;;;;;;5100106;28;20105;-49
2023/12/04 05:33:04;;;;;;;31.42;18.92;;;0.00;92.90;;;;;;5108772;28;20563;-50
2023/12/04 05:35:34;;;;;;;30.50;18.48;;;0.00;93.00;;;;;;5114688;28;20086;-50
2023/12/04 05:38:02;;;;;;;30.85;19.42;;;0.00;93.10;;;;;;5114891;28;20093;-50
2023/12/04 05:40:29;;;;;;;29.25;20.63;;;0.00;93.00;;;;;;5101044;28;20384;-48
2023/12/04 05:42:59;;;;;;;29.85;17.90;;;0.10;93.10;;;;;;5102084;28;20073;-48
2023/12/04 05:45:24;;;;;;;;;;;0.10;93.20;;;;;;5102093;28;20044;-51
2023/12/04 05:47:52;;;;;;;30.55;17.98;;;0.10;93.20;;;;;;5102746;28;19962;-52
2023/12/04 05:50:20;;;;;;;30.50;18.88;;;0.10;93.20;;;;;;5093296;28;20028;-51
2023/12/04 05:52:50;;;;;;;31.98;18.45;;;0.20;93.30;;;;;;5095277;28;20028;-50
2023/12/04 05:55:17;;;;;;;31.33;19.55;;;0.10;93.10;;;;;;5100343;28;20031;-51
2023/12/04 05:57:44;;;;;;;32.50;19.35;;;0.10;93.10;;;;;;5093213;28;20426;-50
2023/12/04 06:00:12;;;;;;;34.97;21.52;;;0.10;93.20;;;;;;5078972;28;20084;-48
2023/12/04 06:02:41;;;;;;;34.33;20.25;;;0.10;93.20;;;;;;5089450;28;20046;-49
2023/12/04 06:05:07;;;;;;;34.83;20.30;;;0.20;93.20;;;;;;5080926;28;20043;-49
2023/12/04 06:07:33;;;;;;;34.85;19.00;;;0.10;93.00;;;;;;5103142;28;20027;-48
2023/12/04 06:10:00;;;;;;;33.80;21.95;;;0.20;93.20;;;;;;5100270;28;20081;-49
2023/12/04 06:12:27;;;;;;;31.63;19.00;;;0.20;93.20;;;;;;5081998;28;20048;-49
2023/12/04 06:14:58;;;;;;;31.98;19.15;;;0.20;93.20;;;;;;5078218;28;20127;-48
2023/12/04 06:17:26;;;;;;;30.02;18.60;;;0.20;93.10;;;;;;5094582;28;20028;-54
2023/12/04 06:19:53;;;;;;;32.53;19.73;;;0.20;93.20;;;;;;5076507;28;20062;-48
2023/12/04 06:22:22;;;;;;;27.63;18.50;;;0.20;93.30;;;;;;5098761;28;20024;-49
2023/12/04 06:24:49;;;;;;;31.13;19.20;;;0.30;93.30;;;;;;5110987;28;20084;-51
2023/12/04 06:27:21;;;;;;;30.38;18.85;;;0.30;93.20;;;;;;5087685;28;20027;-49
2023/12/04 06:29:49;;;;;;;31.95;18.02;;;0.30;93.00;;;;;;5106446;28;20019;-48
2023/12/04 06:32:15;;;;;;;31.40;18.65;;;0.20;93.00;;;;;;5097710;28;20696;-49
2023/12/04 06:34:42;;;;;;;32.25;20.48;;;0.20;92.90;;;;;;5100007;28;20039;-48
2023/12/04 06:37:13;;;;;;;31.73;20.85;;;0.20;93.00;;;;;;5100500;28;20049;-48
2023/12/04 06:39:40;;;;;;;34.00;21.10;;;0.20;93.10;;;;;;5101697;28;20035;-48
2023/12/04 06:42:10;;;;;;;31.55;19.77;;;0.20;93.20;;;;;;5072823;28;20531;-49
2023/12/04 06:44:37;;;;;;;36.00;22.70;;;0.20;93.10;;;;;;5110480;28;20345;-49
2023/12/04 06:47:07;;;;;;;33.25;20.05;;;0.20;93.20;;;;;;5086199;28;20035;-47
2023/12/04 06:49:34;;;;;;;31.10;18.17;;;0.20;93.10;;;;;;5097778;28;20032;-51
2023/12/04 06:52:03;;;;;;;32.92;18.25;;;0.20;93.20;;;;;;5097880;28;20023;-50
2023/12/04 06:54:30;;;;;;;32.92;20.92;;;0.20;93.20;;;;;;5080839;28;20044;-52
2023/12/04 06:57:01;;;;;;;30.73;20.15;;;0.20;93.30;;;;;;5099334;28;20036;-47
2023/12/04 06:59:33;;;;;;;32.88;20.23;;;0.30;93.30;;;;;;5101702;28;20039;-51
2023/12/04 07:02:01;;;;;;;33.92;20.02;;;0.30;93.30;;;;;;5103321;28;20027;-49
2023/12/04 07:04:30;;;;;;;36.85;20.05;;;0.30;93.20;;;;;;5104653;28;20069;-47
2023/12/04 07:07:04;;;;;;;31.70;19.65;;;0.20;93.30;;;;;;5088492;28;20382;-49
2023/12/04 07:09:39;;;;;;;30.02;18.75;;;0.30;93.30;;;;;;5101431;28;20043;-51
2023/12/04 07:12:06;;;;;;;32.78;19.05;;;0.30;93.30;;;;;;5110053;28;20038;-50
2023/12/04 07:14:33;;;;;;;32.70;18.50;;;0.30;93.30;;;;;;5091933;28;20439;-51
2023/12/04 07:17:00;;;;;;;30.05;18.52;;;0.40;93.30;;;;;;5072759;28;21177;-51
2023/12/04 07:19:31;;;;;;;34.20;19.20;;;0.30;93.30;;;;;;5103433;28;20100;-51
2023/12/04 07:21:58;;;;;;;29.38;18.80;;;0.40;93.30;;;;;;5097352;28;20024;-49
2023/12/04 07:24:26;;;;;;;29.13;18.08;;;0.40;93.30;;;;;;5088541;28;20023;-50
2023/12/04 07:26:57;;;;;;;28.27;17.45;;;0.40;93.30;;;;;;5085981;28;20039;-52
2023/12/04 07:29:24;;;;;;;33.22;19.80;;;0.40;93.30;;;;;;5102961;28;20354;-53
2023/12/04 07:31:52;;;;;;;30.83;19.80;;;0.40;93.20;;;;;;5095079;28;20041;-50
2023/12/04 07:34:20;;;;;;;28.92;17.58;;;0.40;93.20;;;;;;5084065;28;20039;-50
2023/12/04 07:36:51;;;;;;;26.58;17.30;;;0.40;93.20;;;;;;5106729;28;20038;-52
2023/12/04 07:39:17;;;;;;;29.17;17.50;;;0.40;93.20;;;;;;5107828;28;20035;-51
2023/12/04 07:41:48;;;;;;;31.48;18.92;;;0.40;93.20;;;;;;5087791;28;20429;-49
2023/12/04 07:44:15;;;;;;;27.75;17.85;;;0.50;93.20;;;;;;5106754;28;20071;-48
2023/12/04 07:46:44;;;;;;;29.40;18.02;;;0.50;93.10;;;;;;5100816;27;20032;-50
2023/12/04 07:49:12;;;;;;;25.40;17.02;;;0.50;93.10;;;;;;5101053;28;20063;-48
2023/12/04 07:51:37;;;;;;;29.67;16.60;;;0.50;93.00;;;;;;5106395;28;20035;-48
2023/12/04 07:54:06;;;;;;;30.90;17.77;;;0.50;93.00;;;;;;5077429;28;20043;-48
2023/12/04 07:56:37;;;;;;;28.33;18.67;;;0.50;93.00;;;;;;5107783;28;20020;-49
2023/12/04 07:59:04;;;;;;;32.85;18.38;;;0.50;93.10;;;;;;5107336;28;20047;-50
2023/12/04 08:01:31;;;;;;;28.15;19.15;;;0.40;92.90;;;;;;5110922;28;20073;-47
2023/12/04 08:04:00;;;;;;;26.63;16.25;;;0.40;93.00;;;;;;5100030;28;20035;-48
2023/12/04 08:06:28;;;;;;;32.97;18.73;;;0.40;93.10;;;;;;5099334;28;20027;-49
2023/12/04 08:08:55;;;;;;;26.52;16.65;;;0.40;93.00;;;;;;5114583;28;20065;-51
2023/12/04 08:11:24;;;;;;;29.45;18.80;;;0.40;93.30;;;;;;5081717;28;20024;-48
2023/12/04 08:13:51;;;;;;;29.33;19.00;;;0.40;93.20;;;;;;5086235;28;20043;-51
2023/12/04 08:16:20;;;;;;;28.60;17.60;;;0.40;93.30;;;;;;5075940;28;20039;-48
2023/12/04 08:18:48;;;;;;;;;;;0.50;93.30;;;;;;5099585;28;20036;-48
2023/12/04 08:21:14;;;;;;;28.05;18.48;;;0.50;93.40;;;;;;5095325;28;19914;-50
2023/12/04 08:23:44;;;;;;;28.00;17.88;;;0.50;93.40;;;;;;5108379;28;20028;-48
2023/12/04 08:26:10;;;;;;;;;;;0.50;93.30;;;;;;5114828;28;20027;-49
2023/12/04 08:28:41;;;;;;;29.30;17.17;;;0.50;93.20;;;;;;5096197;28;19923;-49
2023/12/04 08:31:15;;;;;;;28.58;20.40;;;0.50;93.20;;;;;;5104667;28;20030;-48
2023/12/04 08:33:42;;;;;;;30.80;19.02;;;0.50;93.20;;;;;;5100413;28;20342;-49
2023/12/04 08:36:08;;;;;;;29.55;17.30;;;0.50;93.00;;;;;;5085714;28;20030;-48
2023/12/04 08:38:36;;;;;;;30.42;19.45;;;0.50;93.10;;;;;;5103719;28;20076;-48
2023/12/04 08:41:12;;;;;;;25.83;16.40;;;0.60;93.10;;;;;;5088058;28;20032;-48
2023/12/04 08:43:44;;;;;;;29.77;18.73;;;0.60;92.90;;;;;;5087061;28;20036;-49
2023/12/04 08:46:17;;;;;;;25.13;16.15;;;0.60;92.60;;;;;;5087881;28;20020;-48
2023/12/04 08:48:46;;;;;;;28.75;16.45;;;0.60;92.40;;;;;;5109390;28;20098;-49
2023/12/04 08:51:21;;;;;;;27.55;16.63;;;0.50;92.40;;;;;;5096483;28;20035;-54
2023/12/04 08:53:49;;;;;;;25.08;15.55;;;0.60;92.40;;;;;;5107388;28;20028;-50
2023/12/04 08:56:15;;;;;;;25.20;17.23;;;0.60;92.40;;;;;;5102614;28;20096;-53
2023/12/04 08:58:40;;;;;;;24.40;16.30;;;0.70;92.40;;;;;;5082432;28;20056;-49
2023/12/04 09:01:08;;;;;;;24.25;15.38;;;0.70;92.40;;;;;;5098772;28;20027;-51
2023/12/04 09:03:36;;;;;;;26.35;16.15;;;0.70;92.20;;;;;;5105950;28;20023;-53
2023/12/04 09:06:06;;;;;;;21.30;14.38;;;0.70;92.10;;;;;;5075208;28;20468;-52
2023/12/04 09:08:34;;;;;;;26.55;18.45;;;0.70;92.00;;;;;;5111957;27;20016;-51
2023/12/04 09:11:00;;;;;;;25.27;15.45;;;0.80;92.00;;;;;;5112108;28;20046;-51
2023/12/04 09:13:35;;;;;;;24.27;14.77;;;0.80;92.10;;;;;;5113060;28;20031;-51
2023/12/04 09:16:02;;;;;;;25.25;16.48;;;0.80;92.00;;;;;;5088755;28;20066;-52
2023/12/04 09:18:29;;;;;;;23.40;15.43;;;0.90;91.90;;;;;;5106162;28;20448;-49
2023/12/04 09:21:04;;;;;;;23.27;15.48;;;0.90;91.70;;;;;;5109315;28;20059;-49
2023/12/04 09:23:38;;;;;;;22.90;15.40;;;0.90;91.70;;;;;;5110011;28;20024;-53
2023/12/04 09:26:05;;;;;;;22.40;14.35;;;0.90;91.60;;;;;;5113863;28;20454;-53
2023/12/04 09:28:32;;;;;;;21.42;14.38;;;0.90;91.50;;;;;;5105630;28;20023;-52
2023/12/04 09:31:02;;;;;;;22.05;13.88;;;0.90;91.40;;;;;;5106346;28;20107;-52
2023/12/04 09:33:30;;;;;;;23.85;15.15;;;0.90;91.30;;;;;;5103795;28;20031;-53
2023/12/04 09:35:57;;;;;;;22.88;14.98;;;0.90;91.30;;;;;;5103106;28;20016;-51
2023/12/04 09:38:25;;;;;;;24.33;16.02;;;0.90;91.50;;;;;;5105532;28;20032;-49
2023/12/04 09:40:55;;;;;;;23.65;15.45;;;1.00;91.60;;;;;;5112279;28;20023;-47
2023/12/04 09:43:30;;;;;;;;;;;1.00;91.60;;;;;;5113291;28;20114;-49
2023/12/04 09:45:56;;;;;;;26.98;15.13;;;1.10;91.50;;;;;;5106544;28;19958;-52
2023/12/04 09:48:28;;;;;;;21.88;13.43;;;1.00;91.20;;;;;;5090901;28;20039;-49
2023/12/04 09:50:54;;;;;;;21.92;13.27;;;1.00;90.90;;;;;;5104555;28;20032;-48
2023/12/04 09:53:24;;;;;;;25.15;15.68;;;1.00;90.80;;;;;;5084041;28;20089;-53
2023/12/04 09:55:50;;;;;;;;;;;1.00;90.80;;;;;;5087680;28;20365;-50
2023/12/04 09:58:22;;;;;;;25.67;13.98;;;1.00;90.80;;;;;;5081459;28;19927;-50
2023/12/04 10:00:54;;;;;;;20.25;13.35;;;1.00;90.70;;;;;;5076579;28;20040;-52
2023/12/04 10:03:34;;;;;;;21.75;14.07;;;1.00;90.60;;;;;;5111077;28;20024;-53
2023/12/04 10:06:00;;;;;;;;;;;0.90;90.40;;;;;;5083822;28;20043;-48
2023/12/04 10:08:29;;;;;;;22.00;14.63;;;0.90;90.30;;;;;;5083826;28;19908;-51
2023/12/04 10:10:58;;;;;;;21.90;13.77;;;0.90;90.20;;;;;;5111231;28;20023;-51
2023/12/04 10:13:26;;;;;;;20.65;12.05;;;0.80;90.00;;;;;;5103899;28;20326;-54
2023/12/04 10:15:52;;;;;;;19.50;12.40;;;0.70;89.90;;;;;;5081777;28;20043;-48
2023/12/04 10:18:36;;;;;;;21.45;13.40;;;0.80;90.00;;;;;;5104935;28;20024;-50
2023/12/04 10:21:07;;;;;;;22.00;13.82;;;0.80;89.90;;;;;;5091622;28;20024;-52
2023/12/04 10:23:43;;;;;;;23.23;13.05;;;0.80;89.90;;;;;;5103098;28;20016;-47
2023/12/04 10:26:08;;;;;;;23.08;13.27;;;0.80;89.80;;;;;;5081196;28;20373;-52
2023/12/04 10:28:40;;;;;;;20.80;13.50;;;0.80;89.80;;;;;;5074785;28;20032;-51
2023/12/04 10:31:08;;;;;;;16.90;12.15;;;0.80;89.80;;;;;;5095143;28;20027;-49
2023/12/04 10:33:35;;;;;;;20.20;14.55;;;0.70;89.60;;;;;;5079288;28;20521;-47
2023/12/04 10:36:02;;;;;;;19.38;12.88;;;0.80;89.60;;;;;;5100524;28;20026;-49
2023/12/04 10:38:30;;;;;;;20.15;11.77;;;0.80;89.30;;;;;;5106944;28;20050;-51
2023/12/04 10:41:13;;;;;;;17.77;11.13;;;0.80;89.20;;;;;;5103296;28;20074;-53
2023/12/04 10:43:48;;;;;;;20.40;12.13;;;0.80;88.90;;;;;;5101142;28;20043;-48
2023/12/04 10:46:19;;;;;;;22.60;12.00;;;0.90;88.70;;;;;;5079049;28;20067;-53
2023/12/04 10:48:45;;;;;;;18.23;10.88;;;0.90;88.70;;;;;;5097616;28;20047;-47
2023/12/04 10:51:24;;;;;;;22.05;13.55;;;0.90;88.60;;;;;;5102749;28;20496;-50
2023/12/04 10:53:51;;;;;;;19.90;13.32;;;0.90;88.70;;;;;;5075933;28;20062;-49
2023/12/04 10:56:38;;;;;;;20.13;13.10;;;0.90;88.60;;;;;;5102149;28;20484;-50
2023/12/04 10:59:15;;;;;;;20.20;13.40;;;0.90;88.70;;;;;;5085467;28;20104;-51
2023/12/04 11:01:45;;;;;;;19.90;13.90;;;0.90;88.50;;;;;;5093860;28;20055;-52
2023/12/04 11:04:17;;;;;;;19.48;13.40;;;0.90;88.30;;;;;;5085180;28;20054;-50
2023/12/04 11:06:49;;;;;;;20.15;11.77;;;0.90;88.60;;;;;;5078897;28;20040;-50
2023/12/04 11:09:26;;;;;;;22.30;13.23;;;0.90;88.50;;;;;;5097249;28;20404;-49
2023/12/04 11:11:59;;;;;;;19.15;12.40;;;0.90;88.30;;;;;;5078539;28;20036;-50
2023/12/04 11:14:44;;;;;;;18.58;12.50;;;1.00;88.30;;;;;;5057302;28;20036;-53
2023/12/04 11:17:24;;;;;;;19.98;12.02;;;1.00;88.20;;;;;;5087916;28;20063;-52
2023/12/04 11:19:57;;;;;;;18.08;11.80;;;1.00;88.10;;;;;;5078376;28;20032;-53
2023/12/04 11:22:27;;;;;;;20.50;12.52;;;1.00;88.00;;;;;;5051611;28;20032;-51
2023/12/04 11:24:54;;;;;;;22.45;12.35;;;1.00;88.00;;;;;;5077305;28;20377;-53
2023/12/04 11:27:20;;;;;;;20.02;12.07;;;1.00;88.00;;;;;;5060551;28;20039;-49
2023/12/04 11:29:48;;;;;;;15.93;10.88;;;1.00;88.10;;;;;;5095100;28;20058;-51
2023/12/04 11:32:21;;;;;;;17.27;11.55;;;1.10;88.20;;;;;;5077771;28;20032;-48
2023/12/04 11:34:48;;;;;;;19.55;12.75;;;1.20;88.20;;;;;;5058111;28;20028;-49
2023/12/04 11:37:14;;;;;;;17.48;11.30;;;1.20;88.00;;;;;;5061995;28;20038;-49
2023/12/04 11:39:41;;;;;;;20.38;13.02;;;1.10;87.70;;;;;;5099990;28;20107;-49
2023/12/04 11:42:21;;;;;;;18.60;12.10;;;1.20;87.90;;;;;;5077200;28;20150;-48
2023/12/04 11:45:01;;;;;;;17.77;10.85;;;1.20;87.60;;;;;;5095590;28;20058;-50
2023/12/04 11:47:28;;;;;;;15.48;12.07;;;1.20;87.30;;;;;;5093503;28;20043;-49
2023/12/04 11:49:57;;;;;;;15.60;11.00;;;1.20;87.40;;;;;;5093311;28;20028;-48
2023/12/04 11:52:36;;;;;;;16.87;11.03;;;1.30;87.60;;;;;;5107369;28;20030;-48
2023/12/04 11:55:05;;;;;;;16.08;10.05;;;1.20;87.70;;;;;;5084410;28;20302;-51
2023/12/04 11:57:42;;;;;;;16.52;9.93;;;1.20;87.40;;;;;;5107337;28;20107;-50
2023/12/04 12:00:32;;;;;;;17.15;11.98;;;1.30;87.60;;;;;;5075355;28;20040;-49
2023/12/04 12:03:11;;;;;;;17.10;10.73;;;1.20;87.60;;;;;;5074923;28;20113;-49
2023/12/04 12:05:42;;;;;;;15.98;10.02;;;1.30;87.50;;;;;;5095644;28;20024;-49
2023/12/04 12:08:13;;;;;;;16.73;10.93;;;1.30;87.40;;;;;;5075689;28;20029;-49
2023/12/04 12:10:41;;;;;;;16.88;10.73;;;1.30;87.20;;;;;;5097908;28;20078;-50
2023/12/04 12:13:11;;;;;;;16.15;10.32;;;1.40;87.10;;;;;;5080170;28;20031;-49
2023/12/04 12:15:39;;;;;;;17.00;10.35;;;1.40;87.00;;;;;;5053140;28;20063;-49
2023/12/04 12:18:09;;;;;;;14.82;9.38;;;1.40;86.70;;;;;;5088878;28;20090;-50
2023/12/04 12:20:37;;;;;;;15.75;10.35;;;1.40;86.60;;;;;;5077923;28;20021;-51
2023/12/04 12:23:05;;;;;;;16.20;10.10;;;1.40;86.50;;;;;;5091746;28;20028;-55
2023/12/04 12:25:37;;;;;;;14.90;10.07;;;1.50;86.50;;;;;;5079338;28;20029;-54
2023/12/04 12:28:09;;;;;;;16.65;10.38;;;1.40;85.90;;;;;;5076700;28;20032;-50
2023/12/04 12:30:41;;;;;;;13.77;9.10;;;1.40;85.80;;;;;;5091214;28;20448;-49
2023/12/04 12:33:08;;;;;;;15.32;10.07;;;1.40;85.80;;;;;;5092770;28;20055;-52
2023/12/04 12:35:38;;;;;;;16.83;10.70;;;1.40;85.90;;;;;;5094903;28;20341;-55
2023/12/04 12:38:04;;;;;;;17.13;11.48;;;1.40;85.70;;;;;;5080880;28;20032;-51
2023/12/04 12:40:32;;;;;;;13.27;9.18;;;1.40;85.70;;;;;;5096844;28;20444;-51
2023/12/04 12:43:09;;;;;;;18.13;11.70;;;1.40;85.60;;;;;;5101134;28;20436;-52
2023/12/04 12:45:43;;;;;;;16.90;10.15;;;1.40;86.10;;;;;;5085604;28;20077;-54
2023/12/04 12:48:27;;;;;;;14.10;10.45;;;1.40;86.20;;;;;;5081583;28;20114;-50
2023/12/04 12:50:55;;;;;;;14.43;9.80;;;1.40;85.90;;;;;;5084924;28;20558;-49